Aleksandr Zhitnik — EMBN — position and weather

sailwx.info

Track history (hours):
 
Tides and Currents Weather Stations Pressure Air Temp Water Temp Dewpoint Dewpoint Depression Visibility Wind Speed Wind Dir Waves Ship Positions

Aleksandr Zhitnik

Last reported at 2017-Apr-03 17:12 UTC. Time now 2017-Apr-28 10:19 UTC.
Position N 43°51' E 023°24'.
Warning: this ship's position is 24 days out of date.

Length 85 m; draft 1.9 m.

MMSI: 272089600.

Date/timePositionNaut miles runAvg speedWind from/ knotsBaromVisibWave heightAir tempDewpointWater temp
2017-Apr-03 17:12N 43°51' E 023°24'2 5.3
2017-Apr-03 16:55N 43°51' E 023°22'2 5.4
2017-Apr-03 16:31N 43°51' E 023°19'13 5.3
2017-Apr-03 14:00N 43°48' E 023°01'3 5.4
2017-Apr-03 13:30N 43°49' E 022°58'4 5.6
2017-Apr-03 12:52N 43°50' E 022°53'2 5.5
2017-Apr-03 12:30N 43°51' E 022°51'3 5.5
2017-Apr-03 12:00N 43°54' E 022°51'3 5.1
2017-Apr-03 11:30N 43°56' E 022°52'3 5.5
2017-Apr-03 11:00N 43°59' E 022°53'3 5.6
2017-Apr-03 10:30N 44°00' E 022°57'3 5.6
2017-Apr-03 10:00N 44°01' E 023°00'3 5.8
2017-Apr-03 09:30N 44°03' E 023°03'2 4.8
2017-Apr-03 09:00N 44°05' E 023°01'3 5.3
2017-Apr-03 08:30N 44°06' E 022°58'12 5.5
2017-Apr-03 06:19N 44°12' E 022°43'2 5.3
2017-Apr-03 06:00N 44°13' E 022°41'3 5.3
2017-Apr-03 05:31N 44°15' E 022°41'3 5.1
2017-Apr-03 05:00N 44°17' E 022°39'3 5.4
2017-Apr-03 04:30N 44°18' E 022°36'2 3.5
2017-Apr-03 04:00N 44°19' E 022°34'0 0.0
2017-Apr-03 03:30N 44°19' E 022°34'1 1.8
2017-Apr-03 03:00N 44°19' E 022°33'0 0.6
2017-Apr-03 02:30N 44°20' E 022°33'0 0.0
2017-Apr-03 02:00N 44°20' E 022°33'0 1.0
2017-Apr-03 01:30N 44°20' E 022°32'2 4.0
2017-Apr-03 01:00N 44°22' E 022°31'2 4.8
2017-Apr-03 00:30N 44°24' E 022°30'2 3.7
2017-Apr-03 00:00N 44°26' E 022°29'2 4.5
2017-Apr-02 23:30N 44°28' E 022°27'2 3.3
2017-Apr-02 23:01N 44°29' E 022°29'2 4.3
2017-Apr-02 22:30N 44°29' E 022°32'2 4.1
2017-Apr-02 22:00N 44°31' E 022°34'2 4.6
2017-Apr-02 21:31N 44°33' E 022°35'2 4.7
2017-Apr-02 21:00N 44°33' E 022°38'2 4.9
2017-Apr-02 20:30N 44°31' E 022°41'2 4.8
2017-Apr-02 20:01N 44°32' E 022°44'2 4.3
2017-Apr-02 19:31N 44°34' E 022°45'3 5.4
2017-Apr-02 19:00N 44°36' E 022°43'2 4.9
2017-Apr-02 18:30N 44°37' E 022°40'3 5.1
2017-Apr-02 18:00N 44°37' E 022°37'3 5.3
2017-Apr-02 17:30N 44°39' E 022°34'2 3.9
2017-Apr-02 17:00N 44°40' E 022°32'0 0.3
2017-Apr-02 16:30N 44°40' E 022°31'0 0.1
2017-Apr-02 16:00N 44°40' E 022°31'0 0.0
2017-Apr-02 15:30N 44°40' E 022°31'1 2.5
2017-Apr-02 15:00N 44°41' E 022°30'4 4.3
2017-Apr-02 14:00N 44°42' E 022°24'3 5.6
2017-Apr-02 13:30N 44°40' E 022°21'8 5.1
2017-Apr-02 11:56N 44°34' E 022°14'4 5.6
2017-Apr-02 11:10N 44°30' E 022°12'1 5.6
2017-Apr-02 11:00N 44°29' E 022°11'2 4.6
2017-Apr-02 10:30N 44°29' E 022°08'2 5.0
2017-Apr-02 10:00N 44°30' E 022°05'3 5.0
2017-Apr-02 09:30N 44°32' E 022°04'2 4.9
2017-Apr-02 09:00N 44°34' E 022°02'15 4.1
2017-Apr-02 05:21N 44°40' E 021°42'2 4.6
2017-Apr-02 04:57N 44°41' E 021°40'2 5.0
2017-Apr-02 04:29N 44°43' E 021°38'2 5.2
2017-Apr-02 04:01N 44°45' E 021°36'3 4.9
2017-Apr-02 03:27N 44°46' E 021°33'1 2.9
2017-Apr-02 02:59N 44°46' E 021°31'0 0.1
2017-Apr-02 02:30N 44°46' E 021°31'0 0.0
2017-Apr-02 02:01N 44°46' E 021°31'0 0.0
2017-Apr-02 01:30N 44°46' E 021°31'0 0.0
2017-Apr-02 01:00N 44°46' E 021°31'0 0.0
2017-Apr-02 00:30N 44°46' E 021°31'0 0.0
2017-Apr-02 00:00N 44°46' E 021°31'0 0.0
2017-Apr-01 23:30N 44°46' E 021°31'0 0.0
2017-Apr-01 23:00N 44°46' E 021°31'0 0.0
2017-Apr-01 22:30N 44°46' E 021°31'0 0.0
2017-Apr-01 22:00N 44°46' E 021°31'0 0.3
2017-Apr-01 21:30N 44°46' E 021°31'0 0.0
2017-Apr-01 21:00N 44°46' E 021°31'0 0.0
2017-Apr-01 20:28N 44°46' E 021°31'0 0.0
2017-Apr-01 20:00N 44°46' E 021°31'0 0.0
2017-Apr-01 19:29N 44°46' E 021°31'0 0.0
2017-Apr-01 19:00N 44°46' E 021°31'0 0.0
2017-Apr-01 18:30N 44°46' E 021°31'0 0.2
2017-Apr-01 17:27N 44°46' E 021°31'2 4.1
2017-Apr-01 17:00N 44°47' E 021°28'2 4.8
2017-Apr-01 16:30N 44°46' E 021°25'9 4.0
2017-Apr-01 14:20N 44°47' E 021°13'4 4.3
2017-Apr-01 13:30N 44°44' E 021°09'2 4.7
2017-Apr-01 13:00N 44°43' E 021°06'2 5.0
2017-Apr-01 12:30N 44°43' E 021°02'2 4.4
2017-Apr-01 12:01N 44°43' E 020°59'2 3.1
2017-Apr-01 11:30N 44°42' E 020°58'0 0.1
2017-Apr-01 11:00N 44°42' E 020°58'0 0.1
2017-Apr-01 10:30N 44°42' E 020°57'0 0.2
2017-Apr-01 10:00N 44°42' E 020°57'0 0.2
2017-Apr-01 09:30N 44°42' E 020°58'1 1.2
2017-Apr-01 09:00N 44°41' E 020°57'2 3.8
2017-Apr-01 08:30N 44°40' E 020°55'0 0.1
2017-Apr-01 07:58N 44°40' E 020°55'0 0.0
2017-Apr-01 07:29N 44°40' E 020°55'0 0.0
2017-Apr-01 07:00N 44°40' E 020°55'0 0.0
2017-Apr-01 06:30N 44°40' E 020°55'0 0.0
2017-Apr-01 06:00N 44°40' E 020°55'0 0.0
2017-Apr-01 05:30N 44°40' E 020°55'0 0.0
2017-Apr-01 05:00N 44°40' E 020°55'0 0.1
2017-Apr-01 04:30N 44°40' E 020°55'0 0.0
2017-Apr-01 03:59N 44°40' E 020°55'0 0.0
2017-Apr-01 03:30N 44°40' E 020°55'0 0.0
2017-Apr-01 03:00N 44°40' E 020°55'0 0.0
2017-Apr-01 02:30N 44°40' E 020°55'0 0.0
2017-Apr-01 01:59N 44°40' E 020°55'0 0.0
2017-Apr-01 01:30N 44°40' E 020°55'0 0.0
2017-Apr-01 00:59N 44°40' E 020°55'0 0.0
2017-Apr-01 00:30N 44°40' E 020°55'0 0.0
2017-Apr-01 00:00N 44°40' E 020°55'0 0.0
2017-Mar-31 23:29N 44°40' E 020°55'0 0.0
2017-Mar-31 23:00N 44°40' E 020°55'0 0.0
2017-Mar-31 22:30N 44°40' E 020°55'2 3.3
2017-Mar-31 21:59N 44°40' E 020°53'7 5.1
2017-Mar-31 20:36N 44°41' E 020°43'0 5.3
2017-Mar-31 20:30N 44°42' E 020°42'3 5.3
2017-Mar-31 20:00N 44°44' E 020°40'3 5.2
2017-Mar-31 19:30N 44°46' E 020°38'3 5.2
2017-Mar-31 19:00N 44°48' E 020°38'2 4.9
2017-Mar-31 18:30N 44°51' E 020°38'2 4.9
2017-Mar-31 18:00N 44°51' E 020°35'3 5.3
2017-Mar-31 17:30N 44°50' E 020°31'2 3.5
2017-Mar-31 16:57N 44°50' E 020°29'0 0.4
2017-Mar-31 16:30N 44°50' E 020°29'  
2017-Mar-29 10:25N 44°49' E 020°29'0 0.0
2017-Mar-29 09:33N 44°49' E 020°29'0 0.0
2017-Mar-29 08:33N 44°49' E 020°29'0 0.0
2017-Mar-29 07:34N 44°49' E 020°29'0 0.0
2017-Mar-29 06:33N 44°49' E 020°29'0 0.0
2017-Mar-29 05:32N 44°49' E 020°29'0 0.0
2017-Mar-29 04:33N 44°49' E 020°29'0 0.0
2017-Mar-29 03:33N 44°49' E 020°29'0 0.0
2017-Mar-29 02:33N 44°49' E 020°29'0 0.0
2017-Mar-29 01:33N 44°49' E 020°29'0 0.0
2017-Mar-29 00:33N 44°49' E 020°29'0 0.0
2017-Mar-28 23:33N 44°49' E 020°29'0 0.0
2017-Mar-28 22:34N 44°49' E 020°29'0 0.0
2017-Mar-28 21:34N 44°49' E 020°29'0 0.0
2017-Mar-28 20:33N 44°49' E 020°29'0 0.0
2017-Mar-28 19:33N 44°49' E 020°29'0 0.0
2017-Mar-28 18:34N 44°49' E 020°29'0 0.0
2017-Mar-28 17:33N 44°49' E 020°29'0 0.0
2017-Mar-28 16:33N 44°49' E 020°29'0 0.0
2017-Mar-28 15:33N 44°49' E 020°29'0 0.0
2017-Mar-28 14:33N 44°49' E 020°29'0 0.0
2017-Mar-28 13:33N 44°49' E 020°29'0 0.3
2017-Mar-28 12:33N 44°50' E 020°29'0 0.2
2017-Mar-28 11:33N 44°50' E 020°29'2 2.5
2017-Mar-28 10:33N 44°50' E 020°32'4 4.0
2017-Mar-28 09:33N 44°51' E 020°38'4 3.9
2017-Mar-28 08:33N 44°47' E 020°38'4 4.1
2017-Mar-28 07:33N 44°44' E 020°41'4 4.4
2017-Mar-28 06:33N 44°40' E 020°45'4 4.1
2017-Mar-28 05:33N 44°39' E 020°50'3 3.3
2017-Mar-28 04:33N 44°40' E 020°55'2 2.5
2017-Mar-28 03:34N 44°42' E 020°58'0 0.1
2017-Mar-28 02:33N 44°42' E 020°57'0 0.0
2017-Mar-28 01:34N 44°42' E 020°57'0 0.0
2017-Mar-28 00:33N 44°42' E 020°57'0 0.0
2017-Mar-27 23:33N 44°42' E 020°57'0 0.0
2017-Mar-27 22:33N 44°42' E 020°57'0 0.0
2017-Mar-27 21:33N 44°42' E 020°57'0 0.0
2017-Mar-27 20:33N 44°42' E 020°57'0 0.0
2017-Mar-27 19:33N 44°42' E 020°57'0 0.0
2017-Mar-27 18:33N 44°42' E 020°57'0 0.0
2017-Mar-27 17:33N 44°42' E 020°57'0 0.0
2017-Mar-27 16:33N 44°42' E 020°57'0 0.0
2017-Mar-27 15:33N 44°42' E 020°57'0 0.2
2017-Mar-27 14:33N 44°42' E 020°58'0 0.0
2017-Mar-27 13:33N 44°42' E 020°58'0 0.0
2017-Mar-27 12:34N 44°42' E 020°58'0 0.0
2017-Mar-27 11:33N 44°42' E 020°58'0 0.0
2017-Mar-27 10:33N 44°42' E 020°58'0 0.0
2017-Mar-27 09:34N 44°42' E 020°58'0 0.0
2017-Mar-27 08:34N 44°42' E 020°58'0 0.2
2017-Mar-27 07:34N 44°42' E 020°57'0 0.0
2017-Mar-27 06:34N 44°42' E 020°57'0 0.0
2017-Mar-27 05:34N 44°42' E 020°57'0 0.2
2017-Mar-27 04:34N 44°42' E 020°58'0 0.0
2017-Mar-27 03:33N 44°42' E 020°58'0 0.0
2017-Mar-27 02:34N 44°42' E 020°58'0 0.0
2017-Mar-27 01:34N 44°42' E 020°58'0 0.0
2017-Mar-27 00:34N 44°42' E 020°58'0 0.0
2017-Mar-26 23:33N 44°42' E 020°58'0 0.0
2017-Mar-26 22:34N 44°42' E 020°58'0 0.0
2017-Mar-26 21:34N 44°42' E 020°58'0 0.2
2017-Mar-26 20:34N 44°42' E 020°58'0 0.0
2017-Mar-26 19:34N 44°42' E 020°58'0 0.0
2017-Mar-26 18:34N 44°42' E 020°58'0 0.0
2017-Mar-26 17:34N 44°42' E 020°58'0 0.0
2017-Mar-26 16:34N 44°42' E 020°58'0 0.0
2017-Mar-26 15:34N 44°42' E 020°58'0 0.0
2017-Mar-26 14:34N 44°42' E 020°58'0 0.1
2017-Mar-26 13:34N 44°42' E 020°58'2 2.2
2017-Mar-26 12:33N 44°43' E 021°01'2 2.4
2017-Mar-26 11:33N 44°43' E 021°04'2 2.3
2017-Mar-26 10:34N 44°44' E 021°07'2 2.5
2017-Mar-26 09:34N 44°45' E 021°10'2 2.1
2017-Mar-26 08:33N 44°46' E 021°12'2 2.5
2017-Mar-26 07:34N 44°48' E 021°15'4 2.8
2017-Mar-26 06:07N 44°49' E 021°20'4 2.3
2017-Mar-26 04:33N 44°47' E 021°24'2 2.5
2017-Mar-26 03:34N 44°47' E 021°27'2 2.5
2017-Mar-26 02:33N 44°46' E 021°31'0 0.3
2017-Mar-26 01:33N 44°46' E 021°31'0 0.0
2017-Mar-26 00:33N 44°46' E 021°31'0 0.0
2017-Mar-25 23:33N 44°46' E 021°31'0 0.0
2017-Mar-25 22:33N 44°46' E 021°31'0 0.2
2017-Mar-25 21:33N 44°46' E 021°31'2 2.1
2017-Mar-25 20:33N 44°46' E 021°34'2 2.3
2017-Mar-25 19:33N 44°44' E 021°36'3 2.5
2017-Mar-25 18:17N 44°42' E 021°39'17 2.1
2017-Mar-25 10:27N 44°36' E 022°01'2 2.6
2017-Mar-25 09:33N 44°34' E 022°02'3 2.8
2017-Mar-25 08:33N 44°32' E 022°04'3 2.8
2017-Mar-25 07:33N 44°29' E 022°06'3 2.9
2017-Mar-25 06:33N 44°28' E 022°10'3 2.7
2017-Mar-25 05:33N 44°31' E 022°12'3 3.3
2017-Mar-25 04:33N 44°34' E 022°14'7 3.1
2017-Mar-25 02:22N 44°40' E 022°18'3 3.3
2017-Mar-25 01:32N 44°41' E 022°22'3 3.4
2017-Mar-25 00:33N 44°43' E 022°26'3 3.0
2017-Mar-24 23:33N 44°42' E 022°30'2 2.1
2017-Mar-24 22:33N 44°40' E 022°31'0 0.2
2017-Mar-24 21:33N 44°40' E 022°32'1 0.6
2017-Mar-24 20:33N 44°40' E 022°32'2 2.0
2017-Mar-24 19:33N 44°38' E 022°34'2 2.1
2017-Mar-24 18:33N 44°37' E 022°37'2 2.4
2017-Mar-24 17:33N 44°37' E 022°40'  
Track history (hours):
 
Tides and Currents Weather Stations Pressure Air Temp Water Temp Dewpoint Dewpoint Depression Visibility Wind Speed Wind Dir Waves Ship Positions

Aleksandr Zhitnik

Last reported at 2017-Apr-03 17:12 UTC. Time now 2017-Apr-28 10:19 UTC.
Position N 43°51' E 023°24'.
Warning: this ship's position is 24 days out of date.

Length 85 m; draft 1.9 m.

MMSI: 272089600.

Date/timePositionNaut miles runAvg speedWind from/ knotsBaromVisibWave heightAir tempDewpointWater temp
2017-Apr-03 17:12N 43°51' E 023°24'2 5.3
2017-Apr-03 16:55N 43°51' E 023°22'2 5.4
2017-Apr-03 16:31N 43°51' E 023°19'13 5.3
2017-Apr-03 14:00N 43°48' E 023°01'3 5.4
2017-Apr-03 13:30N 43°49' E 022°58'4 5.6
2017-Apr-03 12:52N 43°50' E 022°53'2 5.5
2017-Apr-03 12:30N 43°51' E 022°51'3 5.5
2017-Apr-03 12:00N 43°54' E 022°51'3 5.1
2017-Apr-03 11:30N 43°56' E 022°52'3 5.5
2017-Apr-03 11:00N 43°59' E 022°53'3 5.6
2017-Apr-03 10:30N 44°00' E 022°57'3 5.6
2017-Apr-03 10:00N 44°01' E 023°00'3 5.8
2017-Apr-03 09:30N 44°03' E 023°03'2 4.8
2017-Apr-03 09:00N 44°05' E 023°01'3 5.3
2017-Apr-03 08:30N 44°06' E 022°58'12 5.5
2017-Apr-03 06:19N 44°12' E 022°43'2 5.3
2017-Apr-03 06:00N 44°13' E 022°41'3 5.3
2017-Apr-03 05:31N 44°15' E 022°41'3 5.1
2017-Apr-03 05:00N 44°17' E 022°39'3 5.4
2017-Apr-03 04:30N 44°18' E 022°36'2 3.5
2017-Apr-03 04:00N 44°19' E 022°34'0 0.0
2017-Apr-03 03:30N 44°19' E 022°34'1 1.8
2017-Apr-03 03:00N 44°19' E 022°33'0 0.6
2017-Apr-03 02:30N 44°20' E 022°33'0 0.0
2017-Apr-03 02:00N 44°20' E 022°33'0 1.0
2017-Apr-03 01:30N 44°20' E 022°32'2 4.0
2017-Apr-03 01:00N 44°22' E 022°31'2 4.8
2017-Apr-03 00:30N 44°24' E 022°30'2 3.7
2017-Apr-03 00:00N 44°26' E 022°29'2 4.5
2017-Apr-02 23:30N 44°28' E 022°27'2 3.3
2017-Apr-02 23:01N 44°29' E 022°29'2 4.3
2017-Apr-02 22:30N 44°29' E 022°32'2 4.1
2017-Apr-02 22:00N 44°31' E 022°34'2 4.6
2017-Apr-02 21:31N 44°33' E 022°35'2 4.7
2017-Apr-02 21:00N 44°33' E 022°38'2 4.9
2017-Apr-02 20:30N 44°31' E 022°41'2 4.8
2017-Apr-02 20:01N 44°32' E 022°44'2 4.3
2017-Apr-02 19:31N 44°34' E 022°45'3 5.4
2017-Apr-02 19:00N 44°36' E 022°43'2 4.9
2017-Apr-02 18:30N 44°37' E 022°40'3 5.1
2017-Apr-02 18:00N 44°37' E 022°37'3 5.3
2017-Apr-02 17:30N 44°39' E 022°34'2 3.9
2017-Apr-02 17:00N 44°40' E 022°32'0 0.3
2017-Apr-02 16:30N 44°40' E 022°31'0 0.1
2017-Apr-02 16:00N 44°40' E 022°31'0 0.0
2017-Apr-02 15:30N 44°40' E 022°31'1 2.5
2017-Apr-02 15:00N 44°41' E 022°30'4 4.3
2017-Apr-02 14:00N 44°42' E 022°24'3 5.6
2017-Apr-02 13:30N 44°40' E 022°21'8 5.1
2017-Apr-02 11:56N 44°34' E 022°14'4 5.6
2017-Apr-02 11:10N 44°30' E 022°12'1 5.6
2017-Apr-02 11:00N 44°29' E 022°11'2 4.6
2017-Apr-02 10:30N 44°29' E 022°08'2 5.0
2017-Apr-02 10:00N 44°30' E 022°05'3 5.0
2017-Apr-02 09:30N 44°32' E 022°04'2 4.9
2017-Apr-02 09:00N 44°34' E 022°02'15 4.1
2017-Apr-02 05:21N 44°40' E 021°42'2 4.6
2017-Apr-02 04:57N 44°41' E 021°40'2 5.0
2017-Apr-02 04:29N 44°43' E 021°38'2 5.2
2017-Apr-02 04:01N 44°45' E 021°36'3 4.9
2017-Apr-02 03:27N 44°46' E 021°33'1 2.9
2017-Apr-02 02:59N 44°46' E 021°31'0 0.1
2017-Apr-02 02:30N 44°46' E 021°31'0 0.0
2017-Apr-02 02:01N 44°46' E 021°31'0 0.0
2017-Apr-02 01:30N 44°46' E 021°31'0 0.0
2017-Apr-02 01:00N 44°46' E 021°31'0 0.0
2017-Apr-02 00:30N 44°46' E 021°31'0 0.0
2017-Apr-02 00:00N 44°46' E 021°31'0 0.0
2017-Apr-01 23:30N 44°46' E 021°31'0 0.0
2017-Apr-01 23:00N 44°46' E 021°31'0 0.0
2017-Apr-01 22:30N 44°46' E 021°31'0 0.0
2017-Apr-01 22:00N 44°46' E 021°31'0 0.3
2017-Apr-01 21:30N 44°46' E 021°31'0 0.0
2017-Apr-01 21:00N 44°46' E 021°31'0 0.0
2017-Apr-01 20:28N 44°46' E 021°31'0 0.0
2017-Apr-01 20:00N 44°46' E 021°31'0 0.0
2017-Apr-01 19:29N 44°46' E 021°31'0 0.0
2017-Apr-01 19:00N 44°46' E 021°31'0 0.0
2017-Apr-01 18:30N 44°46' E 021°31'0 0.2
2017-Apr-01 17:27N 44°46' E 021°31'2 4.1
2017-Apr-01 17:00N 44°47' E 021°28'2 4.8
2017-Apr-01 16:30N 44°46' E 021°25'9 4.0
2017-Apr-01 14:20N 44°47' E 021°13'4 4.3
2017-Apr-01 13:30N 44°44' E 021°09'2 4.7
2017-Apr-01 13:00N 44°43' E 021°06'2 5.0
2017-Apr-01 12:30N 44°43' E 021°02'2 4.4
2017-Apr-01 12:01N 44°43' E 020°59'2 3.1
2017-Apr-01 11:30N 44°42' E 020°58'0 0.1
2017-Apr-01 11:00N 44°42' E 020°58'0 0.1
2017-Apr-01 10:30N 44°42' E 020°57'0 0.2
2017-Apr-01 10:00N 44°42' E 020°57'0 0.2
2017-Apr-01 09:30N 44°42' E 020°58'1 1.2
2017-Apr-01 09:00N 44°41' E 020°57'2 3.8
2017-Apr-01 08:30N 44°40' E 020°55'0 0.1
2017-Apr-01 07:58N 44°40' E 020°55'0 0.0
2017-Apr-01 07:29N 44°40' E 020°55'0 0.0
2017-Apr-01 07:00N 44°40' E 020°55'0 0.0
2017-Apr-01 06:30N 44°40' E 020°55'0 0.0
2017-Apr-01 06:00N 44°40' E 020°55'0 0.0
2017-Apr-01 05:30N 44°40' E 020°55'0 0.0
2017-Apr-01 05:00N 44°40' E 020°55'0 0.1
2017-Apr-01 04:30N 44°40' E 020°55'0 0.0
2017-Apr-01 03:59N 44°40' E 020°55'0 0.0
2017-Apr-01 03:30N 44°40' E 020°55'0 0.0
2017-Apr-01 03:00N 44°40' E 020°55'0 0.0
2017-Apr-01 02:30N 44°40' E 020°55'0 0.0
2017-Apr-01 01:59N 44°40' E 020°55'0 0.0
2017-Apr-01 01:30N 44°40' E 020°55'0 0.0
2017-Apr-01 00:59N 44°40' E 020°55'0 0.0
2017-Apr-01 00:30N 44°40' E 020°55'0 0.0
2017-Apr-01 00:00N 44°40' E 020°55'0 0.0
2017-Mar-31 23:29N 44°40' E 020°55'0 0.0
2017-Mar-31 23:00N 44°40' E 020°55'0 0.0
2017-Mar-31 22:30N 44°40' E 020°55'2 3.3
2017-Mar-31 21:59N 44°40' E 020°53'7 5.1
2017-Mar-31 20:36N 44°41' E 020°43'0 5.3
2017-Mar-31 20:30N 44°42' E 020°42'3 5.3
2017-Mar-31 20:00N 44°44' E 020°40'3 5.2
2017-Mar-31 19:30N 44°46' E 020°38'3 5.2
2017-Mar-31 19:00N 44°48' E 020°38'2 4.9
2017-Mar-31 18:30N 44°51' E 020°38'2 4.9
2017-Mar-31 18:00N 44°51' E 020°35'3 5.3
2017-Mar-31 17:30N 44°50' E 020°31'2 3.5
2017-Mar-31 16:57N 44°50' E 020°29'0 0.4
2017-Mar-31 16:30N 44°50' E 020°29'  
2017-Mar-29 10:25N 44°49' E 020°29'0 0.0
2017-Mar-29 09:33N 44°49' E 020°29'0 0.0
2017-Mar-29 08:33N 44°49' E 020°29'0 0.0
2017-Mar-29 07:34N 44°49' E 020°29'0 0.0
2017-Mar-29 06:33N 44°49' E 020°29'0 0.0
2017-Mar-29 05:32N 44°49' E 020°29'0 0.0
2017-Mar-29 04:33N 44°49' E 020°29'0 0.0
2017-Mar-29 03:33N 44°49' E 020°29'0 0.0
2017-Mar-29 02:33N 44°49' E 020°29'0 0.0
2017-Mar-29 01:33N 44°49' E 020°29'0 0.0
2017-Mar-29 00:33N 44°49' E 020°29'0 0.0
2017-Mar-28 23:33N 44°49' E 020°29'0 0.0
2017-Mar-28 22:34N 44°49' E 020°29'0 0.0
2017-Mar-28 21:34N 44°49' E 020°29'0 0.0
2017-Mar-28 20:33N 44°49' E 020°29'0 0.0
2017-Mar-28 19:33N 44°49' E 020°29'0 0.0
2017-Mar-28 18:34N 44°49' E 020°29'0 0.0
2017-Mar-28 17:33N 44°49' E 020°29'0 0.0
2017-Mar-28 16:33N 44°49' E 020°29'0 0.0
2017-Mar-28 15:33N 44°49' E 020°29'0 0.0
2017-Mar-28 14:33N 44°49' E 020°29'0 0.0
2017-Mar-28 13:33N 44°49' E 020°29'0 0.3
2017-Mar-28 12:33N 44°50' E 020°29'0 0.2
2017-Mar-28 11:33N 44°50' E 020°29'2 2.5
2017-Mar-28 10:33N 44°50' E 020°32'4 4.0
2017-Mar-28 09:33N 44°51' E 020°38'4 3.9
2017-Mar-28 08:33N 44°47' E 020°38'4 4.1
2017-Mar-28 07:33N 44°44' E 020°41'4 4.4
2017-Mar-28 06:33N 44°40' E 020°45'4 4.1
2017-Mar-28 05:33N 44°39' E 020°50'3 3.3
2017-Mar-28 04:33N 44°40' E 020°55'2 2.5
2017-Mar-28 03:34N 44°42' E 020°58'0 0.1
2017-Mar-28 02:33N 44°42' E 020°57'0 0.0
2017-Mar-28 01:34N 44°42' E 020°57'0 0.0
2017-Mar-28 00:33N 44°42' E 020°57'0 0.0
2017-Mar-27 23:33N 44°42' E 020°57'0 0.0
2017-Mar-27 22:33N 44°42' E 020°57'0 0.0
2017-Mar-27 21:33N 44°42' E 020°57'0 0.0
2017-Mar-27 20:33N 44°42' E 020°57'0 0.0
2017-Mar-27 19:33N 44°42' E 020°57'0 0.0
2017-Mar-27 18:33N 44°42' E 020°57'0 0.0
2017-Mar-27 17:33N 44°42' E 020°57'0 0.0
2017-Mar-27 16:33N 44°42' E 020°57'0 0.0
2017-Mar-27 15:33N 44°42' E 020°57'0 0.2
2017-Mar-27 14:33N 44°42' E 020°58'0 0.0
2017-Mar-27 13:33N 44°42' E 020°58'0 0.0
2017-Mar-27 12:34N 44°42' E 020°58'0 0.0
2017-Mar-27 11:33N 44°42' E 020°58'0 0.0
2017-Mar-27 10:33N 44°42' E 020°58'0 0.0
2017-Mar-27 09:34N 44°42' E 020°58'0 0.0
2017-Mar-27 08:34N 44°42' E 020°58'0 0.2
2017-Mar-27 07:34N 44°42' E 020°57'0 0.0
2017-Mar-27 06:34N 44°42' E 020°57'0 0.0
2017-Mar-27 05:34N 44°42' E 020°57'0 0.2
2017-Mar-27 04:34N 44°42' E 020°58'0 0.0
2017-Mar-27 03:33N 44°42' E 020°58'0 0.0
2017-Mar-27 02:34N 44°42' E 020°58'0 0.0
2017-Mar-27 01:34N 44°42' E 020°58'0 0.0
2017-Mar-27 00:34N 44°42' E 020°58'0 0.0
2017-Mar-26 23:33N 44°42' E 020°58'0 0.0
2017-Mar-26 22:34N 44°42' E 020°58'0 0.0
2017-Mar-26 21:34N 44°42' E 020°58'0 0.2
2017-Mar-26 20:34N 44°42' E 020°58'0 0.0
2017-Mar-26 19:34N 44°42' E 020°58'0 0.0
2017-Mar-26 18:34N 44°42' E 020°58'0 0.0
2017-Mar-26 17:34N 44°42' E 020°58'0 0.0
2017-Mar-26 16:34N 44°42' E 020°58'0 0.0
2017-Mar-26 15:34N 44°42' E 020°58'0 0.0
2017-Mar-26 14:34N 44°42' E 020°58'0 0.1
2017-Mar-26 13:34N 44°42' E 020°58'2 2.2
2017-Mar-26 12:33N 44°43' E 021°01'2 2.4
2017-Mar-26 11:33N 44°43' E 021°04'2 2.3
2017-Mar-26 10:34N 44°44' E 021°07'2 2.5
2017-Mar-26 09:34N 44°45' E 021°10'2 2.1
2017-Mar-26 08:33N 44°46' E 021°12'2 2.5
2017-Mar-26 07:34N 44°48' E 021°15'4 2.8
2017-Mar-26 06:07N 44°49' E 021°20'4 2.3
2017-Mar-26 04:33N 44°47' E 021°24'2 2.5
2017-Mar-26 03:34N 44°47' E 021°27'2 2.5
2017-Mar-26 02:33N 44°46' E 021°31'0 0.3
2017-Mar-26 01:33N 44°46' E 021°31'0 0.0
2017-Mar-26 00:33N 44°46' E 021°31'0 0.0
2017-Mar-25 23:33N 44°46' E 021°31'0 0.0
2017-Mar-25 22:33N 44°46' E 021°31'0 0.2
2017-Mar-25 21:33N 44°46' E 021°31'2 2.1
2017-Mar-25 20:33N 44°46' E 021°34'2 2.3
2017-Mar-25 19:33N 44°44' E 021°36'3 2.5
2017-Mar-25 18:17N 44°42' E 021°39'17 2.1
2017-Mar-25 10:27N 44°36' E 022°01'2 2.6
2017-Mar-25 09:33N 44°34' E 022°02'3 2.8
2017-Mar-25 08:33N 44°32' E 022°04'3 2.8
2017-Mar-25 07:33N 44°29' E 022°06'3 2.9
2017-Mar-25 06:33N 44°28' E 022°10'3 2.7
2017-Mar-25 05:33N 44°31' E 022°12'3 3.3
2017-Mar-25 04:33N 44°34' E 022°14'7 3.1
2017-Mar-25 02:22N 44°40' E 022°18'3 3.3
2017-Mar-25 01:32N 44°41' E 022°22'3 3.4
2017-Mar-25 00:33N 44°43' E 022°26'3 3.0
2017-Mar-24 23:33N 44°42' E 022°30'2 2.1
2017-Mar-24 22:33N 44°40' E 022°31'0 0.2
2017-Mar-24 21:33N 44°40' E 022°32'1 0.6
2017-Mar-24 20:33N 44°40' E 022°32'2 2.0
2017-Mar-24 19:33N 44°38' E 022°34'2 2.1
2017-Mar-24 18:33N 44°37' E 022°37'2 2.4
2017-Mar-24 17:33N 44°37' E 022°40'  

Dump ship's entire track history